Terminal Aerodrome Forecast
Issued by NWS

Home | Current Version | Previous Version | Text Only | Print | Product List | Glossary On
Versions: 1 2 3 4 5 6 7 8 9 10 11 12 13 14 15 16 17 18 19 20 21 22 23 24 25
000
FTUS43 KSGF 161400 AAA
TAFJLN
TAF AMD
KJLN 161458Z 1615/1712 03006KT P6SM OVC008
     FM161630 06005KT P6SM BKN015
     FM162300 VRB03KT P6SM BKN025 BKN100=

USA.gov is the U.S. government's official web portal to all federal, state and local government web resources and services.